Sobral, Brazil
Current Conditions -  °F | °C
As of 5:00 PM on Monday 26 Jan 2015 (Local Time) from SBPB Reporting Station
Few Clouds Few Clouds  
Wind Chill: 86°   Ceiling: Unl
Heat Index: 93°   Visibility: 6mi
Dew Point: 73°   Wind: 16mph
Humidity: 66%   Direction: 60°ENE
Pressure: 29.83"   Gusts: NA
Location:  3.69°S, 40.35°W
Report Text: SBPB 262000Z 06014KT 9999 FEW020 30/23 Q1010
Loading
Personal Weather Stations






























Interactive Weather Map New forecast layout! Learn more

10-Day Weather Forecast

Advertisements
Track Severe Weather on mobile